sensor_id;sensor_type;location;lat;lon;timestamp;temperature;humidity
5059;DHT22;2548;52.050;11.036;2022-09-20T00:00:00;8.80;99.90
5059;DHT22;2548;52.050;11.036;2022-09-20T00:02:27;8.80;99.90
5059;DHT22;2548;52.050;11.036;2022-09-20T00:04:55;8.70;99.90
5059;DHT22;2548;52.050;11.036;2022-09-20T00:07:24;8.70;99.90
5059;DHT22;2548;52.050;11.036;2022-09-20T00:09:51;8.60;99.90
5059;DHT22;2548;52.050;11.036;2022-09-20T00:12:18;8.60;99.90
5059;DHT22;2548;52.050;11.036;2022-09-20T00:14:46;8.60;99.90
5059;DHT22;2548;52.050;11.036;2022-09-20T00:17:13;8.60;99.90
5059;DHT22;2548;52.050;11.036;2022-09-20T00:19:41;8.60;99.90
5059;DHT22;2548;52.050;11.036;2022-09-20T00:22:08;8.60;99.90
5059;DHT22;2548;52.050;11.036;2022-09-20T00:24:37;8.60;99.90
5059;DHT22;2548;52.050;11.036;2022-09-20T00:27:04;8.60;99.90
5059;DHT22;2548;52.050;11.036;2022-09-20T00:29:32;8.50;99.90
5059;DHT22;2548;52.050;11.036;2022-09-20T00:31:59;8.50;99.90
5059;DHT22;2548;52.050;11.036;2022-09-20T00:34:27;8.50;99.90
5059;DHT22;2548;52.050;11.036;2022-09-20T00:37:12;8.60;99.90
5059;DHT22;2548;52.050;11.036;2022-09-20T00:39:40;8.60;99.90
5059;DHT22;2548;52.050;11.036;2022-09-20T00:42:11;8.60;99.90
5059;DHT22;2548;52.050;11.036;2022-09-20T00:44:46;8.60;99.90
5059;DHT22;2548;52.050;11.036;2022-09-20T00:47:22;8.60;99.90
5059;DHT22;2548;52.050;11.036;2022-09-20T00:49:54;8.50;99.90
5059;DHT22;2548;52.050;11.036;2022-09-20T00:52:23;8.50;99.90
5059;DHT22;2548;52.050;11.036;2022-09-20T00:54:53;8.50;99.90
5059;DHT22;2548;52.050;11.036;2022-09-20T00:57:21;8.60;99.90
5059;DHT22;2548;52.050;11.036;2022-09-20T00:59:50;8.60;99.90
5059;DHT22;2548;52.050;11.036;2022-09-20T01:02:21;8.50;99.90
5059;DHT22;2548;52.050;11.036;2022-09-20T01:04:49;8.50;99.90
5059;DHT22;2548;52.050;11.036;2022-09-20T01:07:19;8.50;99.90
5059;DHT22;2548;52.050;11.036;2022-09-20T01:09:48;8.40;99.90
5059;DHT22;2548;52.050;11.036;2022-09-20T01:12:18;8.40;99.90
5059;DHT22;2548;52.050;11.036;2022-09-20T01:14:48;8.40;99.90
5059;DHT22;2548;52.050;11.036;2022-09-20T01:17:17;8.40;99.90
5059;DHT22;2548;52.050;11.036;2022-09-20T01:19:50;8.40;99.90
5059;DHT22;2548;52.050;11.036;2022-09-20T01:22:25;8.40;99.90
5059;DHT22;2548;52.050;11.036;2022-09-20T01:25:01;8.40;99.90
5059;DHT22;2548;52.050;11.036;2022-09-20T01:27:40;8.50;99.90
5059;DHT22;2548;52.050;11.036;2022-09-20T01:30:09;8.50;99.90
5059;DHT22;2548;52.050;11.036;2022-09-20T01:32:49;8.40;99.90
5059;DHT22;2548;52.050;11.036;2022-09-20T01:35:19;8.40;99.90
5059;DHT22;2548;52.050;11.036;2022-09-20T01:38:01;8.40;99.90
5059;DHT22;2548;52.050;11.036;2022-09-20T01:40:34;8.30;99.90
5059;DHT22;2548;52.050;11.036;2022-09-20T01:43:15;8.30;99.90
5059;DHT22;2548;52.050;11.036;2022-09-20T01:45:47;8.30;99.90
5059;DHT22;2548;52.050;11.036;2022-09-20T01:48:21;8.30;99.90
5059;DHT22;2548;52.050;11.036;2022-09-20T01:51:19;8.30;99.90
5059;DHT22;2548;52.050;11.036;2022-09-20T01:54:23;8.30;99.90
5059;DHT22;2548;52.050;11.036;2022-09-20T01:57:21;8.40;99.90
5059;DHT22;2548;52.050;11.036;2022-09-20T02:00:05;8.40;99.90
5059;DHT22;2548;52.050;11.036;2022-09-20T02:02:53;8.40;99.90
5059;DHT22;2548;52.050;11.036;2022-09-20T02:08:39;8.50;99.90
5059;DHT22;2548;52.050;11.036;2022-09-20T02:11:13;8.60;99.90
5059;DHT22;2548;52.050;11.036;2022-09-20T02:14:03;8.60;99.90
5059;DHT22;2548;52.050;11.036;2022-09-20T02:16:47;8.70;99.90
5059;DHT22;2548;52.050;11.036;2022-09-20T02:19:52;8.70;99.90
5059;DHT22;2548;52.050;11.036;2022-09-20T02:22:30;8.80;99.90
5059;DHT22;2548;52.050;11.036;2022-09-20T02:25:15;8.80;99.90
5059;DHT22;2548;52.050;11.036;2022-09-20T02:27:49;8.80;99.90
5059;DHT22;2548;52.050;11.036;2022-09-20T02:30:37;8.90;99.90
5059;DHT22;2548;52.050;11.036;2022-09-20T02:33:22;9.00;99.90
5059;DHT22;2548;52.050;11.036;2022-09-20T02:36:04;9.00;99.90
5059;DHT22;2548;52.050;11.036;2022-09-20T02:38:47;9.00;99.90
5059;DHT22;2548;52.050;11.036;2022-09-20T02:41:40;9.10;99.90
5059;DHT22;2548;52.050;11.036;2022-09-20T02:44:20;9.10;99.90
5059;DHT22;2548;52.050;11.036;2022-09-20T02:46:54;9.10;99.90
5059;DHT22;2548;52.050;11.036;2022-09-20T02:49:28;9.20;99.90
5059;DHT22;2548;52.050;11.036;2022-09-20T02:52:03;9.20;99.90
5059;DHT22;2548;52.050;11.036;2022-09-20T02:54:41;9.20;99.90
5059;DHT22;2548;52.050;11.036;2022-09-20T02:57:16;9.30;99.90
5059;DHT22;2548;52.050;11.036;2022-09-20T02:59:51;9.30;99.90
5059;DHT22;2548;52.050;11.036;2022-09-20T03:02:25;9.30;99.90
5059;DHT22;2548;52.050;11.036;2022-09-20T03:05:11;9.40;99.90
5059;DHT22;2548;52.050;11.036;2022-09-20T03:07:49;9.40;99.90
5059;DHT22;2548;52.050;11.036;2022-09-20T03:10:25;9.50;99.90
5059;DHT22;2548;52.050;11.036;2022-09-20T03:13:10;9.60;99.90
5059;DHT22;2548;52.050;11.036;2022-09-20T03:15:51;9.60;99.90
5059;DHT22;2548;52.050;11.036;2022-09-20T03:18:36;9.60;99.90
5059;DHT22;2548;52.050;11.036;2022-09-20T03:21:21;9.70;99.90
5059;DHT22;2548;52.050;11.036;2022-09-20T03:23:59;9.70;99.90
5059;DHT22;2548;52.050;11.036;2022-09-20T03:26:36;9.70;99.90
5059;DHT22;2548;52.050;11.036;2022-09-20T03:29:21;9.70;99.90
5059;DHT22;2548;52.050;11.036;2022-09-20T03:32:02;9.70;99.90
5059;DHT22;2548;52.050;11.036;2022-09-20T03:34:46;9.70;99.90
5059;DHT22;2548;52.050;11.036;2022-09-20T03:37:33;9.80;99.90
5059;DHT22;2548;52.050;11.036;2022-09-20T03:40:31;9.80;99.90
5059;DHT22;2548;52.050;11.036;2022-09-20T03:43:11;9.80;99.90
5059;DHT22;2548;52.050;11.036;2022-09-20T03:45:59;9.80;99.90
5059;DHT22;2548;52.050;11.036;2022-09-20T03:51:42;9.80;99.90
5059;DHT22;2548;52.050;11.036;2022-09-20T03:54:30;9.80;99.90
5059;DHT22;2548;52.050;11.036;2022-09-20T03:57:37;9.80;99.90
5059;DHT22;2548;52.050;11.036;2022-09-20T04:00:23;9.80;99.90
5059;DHT22;2548;52.050;11.036;2022-09-20T04:03:22;9.80;99.90
5059;DHT22;2548;52.050;11.036;2022-09-20T04:06:11;9.80;99.90
5059;DHT22;2548;52.050;11.036;2022-09-20T04:09:07;9.80;99.90
5059;DHT22;2548;52.050;11.036;2022-09-20T04:11:46;9.80;99.90
5059;DHT22;2548;52.050;11.036;2022-09-20T04:14:19;9.80;99.90
5059;DHT22;2548;52.050;11.036;2022-09-20T04:16:52;9.80;99.90
5059;DHT22;2548;52.050;11.036;2022-09-20T04:19:25;9.80;99.90
5059;DHT22;2548;52.050;11.036;2022-09-20T04:21:55;9.80;99.90
5059;DHT22;2548;52.050;11.036;2022-09-20T04:24:32;9.80;99.90
5059;DHT22;2548;52.050;11.036;2022-09-20T04:27:04;9.70;99.90
5059;DHT22;2548;52.050;11.036;2022-09-20T04:29:41;9.80;99.90
5059;DHT22;2548;52.050;11.036;2022-09-20T04:32:15;9.70;99.90
5059;DHT22;2548;52.050;11.036;2022-09-20T04:34:46;9.70;99.90
5059;DHT22;2548;52.050;11.036;2022-09-20T04:37:34;9.70;99.90
5059;DHT22;2548;52.050;11.036;2022-09-20T04:40:13;9.70;99.90
5059;DHT22;2548;52.050;11.036;2022-09-20T04:43:30;9.70;99.90
5059;DHT22;2548;52.050;11.036;2022-09-20T04:46:31;9.70;99.90
5059;DHT22;2548;52.050;11.036;2022-09-20T04:55:47;9.70;99.90
5059;DHT22;2548;52.050;11.036;2022-09-20T04:58:42;9.70;99.90
5059;DHT22;2548;52.050;11.036;2022-09-20T05:13:42;9.70;99.90
5059;DHT22;2548;52.050;11.036;2022-09-20T05:16:19;9.70;99.90
5059;DHT22;2548;52.050;11.036;2022-09-20T05:19:15;9.70;99.90
5059;DHT22;2548;52.050;11.036;2022-09-20T05:25:10;9.70;99.90
5059;DHT22;2548;52.050;11.036;2022-09-20T05:27:45;9.70;99.90
5059;DHT22;2548;52.050;11.036;2022-09-20T05:30:24;9.70;99.90
5059;DHT22;2548;52.050;11.036;2022-09-20T05:33:03;9.70;99.90
5059;DHT22;2548;52.050;11.036;2022-09-20T05:35:37;9.70;99.90
5059;DHT22;2548;52.050;11.036;2022-09-20T05:38:15;9.70;99.90
5059;DHT22;2548;52.050;11.036;2022-09-20T05:40:58;9.70;99.90
5059;DHT22;2548;52.050;11.036;2022-09-20T05:43:30;9.70;99.90
5059;DHT22;2548;52.050;11.036;2022-09-20T05:46:11;9.70;99.90
5059;DHT22;2548;52.050;11.036;2022-09-20T05:48:51;9.70;99.90
5059;DHT22;2548;52.050;11.036;2022-09-20T05:51:35;9.70;99.90
5059;DHT22;2548;52.050;11.036;2022-09-20T05:54:36;9.70;99.90
5059;DHT22;2548;52.050;11.036;2022-09-20T05:57:15;9.70;99.90
5059;DHT22;2548;52.050;11.036;2022-09-20T05:59:55;9.70;99.90
5059;DHT22;2548;52.050;11.036;2022-09-20T06:02:33;9.70;99.90
5059;DHT22;2548;52.050;11.036;2022-09-20T06:05:10;9.70;99.90
5059;DHT22;2548;52.050;11.036;2022-09-20T06:07:53;9.80;99.90
5059;DHT22;2548;52.050;11.036;2022-09-20T06:10:37;9.80;99.90
5059;DHT22;2548;52.050;11.036;2022-09-20T06:13:22;9.80;99.90
5059;DHT22;2548;52.050;11.036;2022-09-20T06:15:59;9.80;99.90
5059;DHT22;2548;52.050;11.036;2022-09-20T06:18:31;9.90;99.90
5059;DHT22;2548;52.050;11.036;2022-09-20T06:21:08;9.90;99.90
5059;DHT22;2548;52.050;11.036;2022-09-20T06:23:40;9.90;99.90
5059;DHT22;2548;52.050;11.036;2022-09-20T06:26:12;9.90;99.90
5059;DHT22;2548;52.050;11.036;2022-09-20T06:28:45;9.80;99.90
5059;DHT22;2548;52.050;11.036;2022-09-20T06:31:13;9.90;99.90
5059;DHT22;2548;52.050;11.036;2022-09-20T06:33:50;9.90;99.90
5059;DHT22;2548;52.050;11.036;2022-09-20T06:36:22;10.00;99.90
5059;DHT22;2548;52.050;11.036;2022-09-20T06:39:15;10.00;99.90
5059;DHT22;2548;52.050;11.036;2022-09-20T06:42:06;10.00;99.90
5059;DHT22;2548;52.050;11.036;2022-09-20T06:44:35;10.10;99.90
5059;DHT22;2548;52.050;11.036;2022-09-20T06:47:07;10.20;99.90
5059;DHT22;2548;52.050;11.036;2022-09-20T06:49:36;10.20;99.90
5059;DHT22;2548;52.050;11.036;2022-09-20T06:52:05;10.30;99.90
5059;DHT22;2548;52.050;11.036;2022-09-20T06:54:33;10.30;99.90
5059;DHT22;2548;52.050;11.036;2022-09-20T06:57:02;10.40;99.90
5059;DHT22;2548;52.050;11.036;2022-09-20T06:59:30;10.40;99.90
5059;DHT22;2548;52.050;11.036;2022-09-20T07:01:58;10.40;99.90
5059;DHT22;2548;52.050;11.036;2022-09-20T07:04:25;10.40;99.90
5059;DHT22;2548;52.050;11.036;2022-09-20T07:06:59;10.40;99.90
5059;DHT22;2548;52.050;11.036;2022-09-20T07:09:27;10.40;99.90
5059;DHT22;2548;52.050;11.036;2022-09-20T07:11:54;10.40;99.90
5059;DHT22;2548;52.050;11.036;2022-09-20T07:14:25;10.40;99.90
5059;DHT22;2548;52.050;11.036;2022-09-20T07:16:53;10.40;99.90
5059;DHT22;2548;52.050;11.036;2022-09-20T07:19:20;10.40;99.90
5059;DHT22;2548;52.050;11.036;2022-09-20T07:21:48;10.50;99.90
5059;DHT22;2548;52.050;11.036;2022-09-20T07:24:17;10.50;99.90
5059;DHT22;2548;52.050;11.036;2022-09-20T07:26:54;10.50;99.90
5059;DHT22;2548;52.050;11.036;2022-09-20T07:29:22;10.60;99.90
5059;DHT22;2548;52.050;11.036;2022-09-20T07:31:49;10.60;99.90
5059;DHT22;2548;52.050;11.036;2022-09-20T07:34:16;10.70;99.90
5059;DHT22;2548;52.050;11.036;2022-09-20T07:36:45;10.70;99.90
5059;DHT22;2548;52.050;11.036;2022-09-20T07:39:13;10.70;99.90
5059;DHT22;2548;52.050;11.036;2022-09-20T07:41:41;10.70;99.90
5059;DHT22;2548;52.050;11.036;2022-09-20T07:44:15;10.80;99.90
5059;DHT22;2548;52.050;11.036;2022-09-20T07:46:51;10.80;99.90
5059;DHT22;2548;52.050;11.036;2022-09-20T07:49:19;10.80;99.90
5059;DHT22;2548;52.050;11.036;2022-09-20T07:51:47;10.80;99.90
5059;DHT22;2548;52.050;11.036;2022-09-20T07:54:15;10.90;99.90
5059;DHT22;2548;52.050;11.036;2022-09-20T07:56:44;10.90;99.90
5059;DHT22;2548;52.050;11.036;2022-09-20T07:59:12;11.00;99.90
5059;DHT22;2548;52.050;11.036;2022-09-20T08:01:40;11.00;99.90
5059;DHT22;2548;52.050;11.036;2022-09-20T08:04:08;11.10;99.90
5059;DHT22;2548;52.050;11.036;2022-09-20T08:06:36;11.20;99.90
5059;DHT22;2548;52.050;11.036;2022-09-20T08:09:04;11.20;99.90
5059;DHT22;2548;52.050;11.036;2022-09-20T08:11:33;11.40;99.90
5059;DHT22;2548;52.050;11.036;2022-09-20T08:14:02;11.40;99.90
5059;DHT22;2548;52.050;11.036;2022-09-20T08:16:30;11.50;99.90
5059;DHT22;2548;52.050;11.036;2022-09-20T08:18:59;11.50;99.90
5059;DHT22;2548;52.050;11.036;2022-09-20T08:21:29;11.60;99.90
5059;DHT22;2548;52.050;11.036;2022-09-20T08:23:58;11.70;99.90
5059;DHT22;2548;52.050;11.036;2022-09-20T08:26:27;11.70;99.90
5059;DHT22;2548;52.050;11.036;2022-09-20T08:28:55;11.80;99.90
5059;DHT22;2548;52.050;11.036;2022-09-20T08:31:26;11.90;99.90
5059;DHT22;2548;52.050;11.036;2022-09-20T08:33:53;11.90;99.90
5059;DHT22;2548;52.050;11.036;2022-09-20T08:36:22;12.00;99.90
5059;DHT22;2548;52.050;11.036;2022-09-20T08:38:50;12.00;99.90
5059;DHT22;2548;52.050;11.036;2022-09-20T08:41:21;12.00;99.90
5059;DHT22;2548;52.050;11.036;2022-09-20T08:43:52;12.00;99.90
5059;DHT22;2548;52.050;11.036;2022-09-20T08:46:23;12.00;99.90
5059;DHT22;2548;52.050;11.036;2022-09-20T08:48:56;12.10;99.90
5059;DHT22;2548;52.050;11.036;2022-09-20T08:51:25;12.20;99.90
5059;DHT22;2548;52.050;11.036;2022-09-20T08:53:55;12.30;99.90
5059;DHT22;2548;52.050;11.036;2022-09-20T08:56:28;12.40;99.90
5059;DHT22;2548;52.050;11.036;2022-09-20T08:58:55;12.40;99.90
5059;DHT22;2548;52.050;11.036;2022-09-20T09:01:27;12.40;99.90
5059;DHT22;2548;52.050;11.036;2022-09-20T09:04:06;12.20;99.90
5059;DHT22;2548;52.050;11.036;2022-09-20T09:06:38;12.10;99.90
5059;DHT22;2548;52.050;11.036;2022-09-20T09:09:06;12.00;99.90
5059;DHT22;2548;52.050;11.036;2022-09-20T09:11:33;12.00;99.90
5059;DHT22;2548;52.050;11.036;2022-09-20T09:14:10;11.90;99.90
5059;DHT22;2548;52.050;11.036;2022-09-20T09:16:52;12.10;99.90
5059;DHT22;2548;52.050;11.036;2022-09-20T09:19:28;12.10;99.90
5059;DHT22;2548;52.050;11.036;2022-09-20T09:21:57;12.20;99.90
5059;DHT22;2548;52.050;11.036;2022-09-20T09:24:25;12.30;99.90
5059;DHT22;2548;52.050;11.036;2022-09-20T09:27:05;12.50;99.90
5059;DHT22;2548;52.050;11.036;2022-09-20T09:29:33;12.70;99.90
5059;DHT22;2548;52.050;11.036;2022-09-20T09:32:19;12.80;99.90
5059;DHT22;2548;52.050;11.036;2022-09-20T09:34:50;12.80;99.90
5059;DHT22;2548;52.050;11.036;2022-09-20T09:37:24;12.80;99.90
5059;DHT22;2548;52.050;11.036;2022-09-20T09:40:07;12.70;99.90
5059;DHT22;2548;52.050;11.036;2022-09-20T09:42:36;12.60;99.90
5059;DHT22;2548;52.050;11.036;2022-09-20T09:45:11;12.70;99.90
5059;DHT22;2548;52.050;11.036;2022-09-20T09:47:38;12.80;99.90
5059;DHT22;2548;52.050;11.036;2022-09-20T09:50:21;13.00;99.90
5059;DHT22;2548;52.050;11.036;2022-09-20T09:52:59;13.30;99.90
5059;DHT22;2548;52.050;11.036;2022-09-20T09:58:30;13.60;99.90
5059;DHT22;2548;52.050;11.036;2022-09-20T10:01:02;13.60;99.90
5059;DHT22;2548;52.050;11.036;2022-09-20T10:03:40;13.50;99.90
5059;DHT22;2548;52.050;11.036;2022-09-20T10:06:20;13.60;99.90
5059;DHT22;2548;52.050;11.036;2022-09-20T10:09:07;13.60;99.90
5059;DHT22;2548;52.050;11.036;2022-09-20T10:11:47;13.80;99.90
5059;DHT22;2548;52.050;11.036;2022-09-20T10:14:30;14.00;99.90
5059;DHT22;2548;52.050;11.036;2022-09-20T10:17:08;13.90;99.90
5059;DHT22;2548;52.050;11.036;2022-09-20T10:19:57;14.10;99.90
5059;DHT22;2548;52.050;11.036;2022-09-20T10:22:34;14.40;99.90
5059;DHT22;2548;52.050;11.036;2022-09-20T10:25:16;14.60;99.90
5059;DHT22;2548;52.050;11.036;2022-09-20T10:27:55;14.40;99.90
5059;DHT22;2548;52.050;11.036;2022-09-20T10:30:30;14.30;99.90
5059;DHT22;2548;52.050;11.036;2022-09-20T10:33:08;14.30;99.90
5059;DHT22;2548;52.050;11.036;2022-09-20T10:35:53;14.20;99.90
5059;DHT22;2548;52.050;11.036;2022-09-20T10:38:29;14.10;99.90
5059;DHT22;2548;52.050;11.036;2022-09-20T10:41:13;14.30;99.90
5059;DHT22;2548;52.050;11.036;2022-09-20T10:44:09;14.40;99.90
5059;DHT22;2548;52.050;11.036;2022-09-20T10:46:50;14.30;99.90
5059;DHT22;2548;52.050;11.036;2022-09-20T10:49:25;14.30;99.90
5059;DHT22;2548;52.050;11.036;2022-09-20T10:54:59;14.40;99.90
5059;DHT22;2548;52.050;11.036;2022-09-20T10:57:52;14.30;99.90
5059;DHT22;2548;52.050;11.036;2022-09-20T11:00:22;14.10;99.90
5059;DHT22;2548;52.050;11.036;2022-09-20T11:03:02;14.00;99.90
5059;DHT22;2548;52.050;11.036;2022-09-20T11:05:42;14.10;99.90
5059;DHT22;2548;52.050;11.036;2022-09-20T11:08:15;14.40;99.90
5059;DHT22;2548;52.050;11.036;2022-09-20T11:10:49;14.70;99.90
5059;DHT22;2548;52.050;11.036;2022-09-20T11:13:24;14.80;99.90
5059;DHT22;2548;52.050;11.036;2022-09-20T11:15:57;14.70;99.90
5059;DHT22;2548;52.050;11.036;2022-09-20T11:18:30;14.50;99.90
5059;DHT22;2548;52.050;11.036;2022-09-20T11:21:05;14.50;99.90
5059;DHT22;2548;52.050;11.036;2022-09-20T11:23:42;14.60;99.90
5059;DHT22;2548;52.050;11.036;2022-09-20T11:26:15;14.80;99.90
5059;DHT22;2548;52.050;11.036;2022-09-20T11:28:49;15.00;99.90
5059;DHT22;2548;52.050;11.036;2022-09-20T11:31:24;15.20;99.90
5059;DHT22;2548;52.050;11.036;2022-09-20T11:33:57;15.40;99.90
5059;DHT22;2548;52.050;11.036;2022-09-20T11:36:31;15.60;99.90
5059;DHT22;2548;52.050;11.036;2022-09-20T11:39:10;15.60;99.90
5059;DHT22;2548;52.050;11.036;2022-09-20T11:41:40;15.60;99.90
5059;DHT22;2548;52.050;11.036;2022-09-20T11:44:11;15.40;99.90
5059;DHT22;2548;52.050;11.036;2022-09-20T11:46:42;15.50;99.90
5059;DHT22;2548;52.050;11.036;2022-09-20T11:49:16;15.60;99.90
5059;DHT22;2548;52.050;11.036;2022-09-20T11:58:06;15.80;99.90
5059;DHT22;2548;52.050;11.036;2022-09-20T12:00:36;16.00;99.90
5059;DHT22;2548;52.050;11.036;2022-09-20T12:03:16;16.10;99.90
5059;DHT22;2548;52.050;11.036;2022-09-20T12:05:46;16.20;99.90
5059;DHT22;2548;52.050;11.036;2022-09-20T12:08:24;16.20;99.90
5059;DHT22;2548;52.050;11.036;2022-09-20T12:10:56;16.20;99.90
5059;DHT22;2548;52.050;11.036;2022-09-20T12:13:26;16.20;99.90
5059;DHT22;2548;52.050;11.036;2022-09-20T12:15:59;16.10;99.90
5059;DHT22;2548;52.050;11.036;2022-09-20T12:21:13;16.20;99.90
5059;DHT22;2548;52.050;11.036;2022-09-20T12:24:01;16.30;99.90
5059;DHT22;2548;52.050;11.036;2022-09-20T12:26:37;16.30;99.90
5059;DHT22;2548;52.050;11.036;2022-09-20T12:32:50;16.70;99.90
5059;DHT22;2548;52.050;11.036;2022-09-20T12:35:58;16.60;99.90
5059;DHT22;2548;52.050;11.036;2022-09-20T12:38:35;16.60;99.90
5059;DHT22;2548;52.050;11.036;2022-09-20T12:41:07;16.70;99.90
5059;DHT22;2548;52.050;11.036;2022-09-20T12:43:38;16.60;99.90
5059;DHT22;2548;52.050;11.036;2022-09-20T12:46:21;16.60;99.90
5059;DHT22;2548;52.050;11.036;2022-09-20T12:48:49;16.70;99.90
5059;DHT22;2548;52.050;11.036;2022-09-20T12:51:23;16.80;99.90
5059;DHT22;2548;52.050;11.036;2022-09-20T12:54:12;16.90;99.90
5059;DHT22;2548;52.050;11.036;2022-09-20T12:56:41;16.90;99.90
5059;DHT22;2548;52.050;11.036;2022-09-20T12:59:21;16.70;99.90
5059;DHT22;2548;52.050;11.036;2022-09-20T13:01:50;16.50;99.90
5059;DHT22;2548;52.050;11.036;2022-09-20T13:07:46;16.20;99.90
5059;DHT22;2548;52.050;11.036;2022-09-20T13:10:28;16.40;99.90
5059;DHT22;2548;52.050;11.036;2022-09-20T13:13:01;16.60;99.90
5059;DHT22;2548;52.050;11.036;2022-09-20T13:15:29;16.60;99.90
5059;DHT22;2548;52.050;11.036;2022-09-20T13:18:00;16.50;99.90
5059;DHT22;2548;52.050;11.036;2022-09-20T13:20:30;16.50;99.90
5059;DHT22;2548;52.050;11.036;2022-09-20T13:23:01;16.60;99.90
5059;DHT22;2548;52.050;11.036;2022-09-20T13:25:32;16.40;99.90
5059;DHT22;2548;52.050;11.036;2022-09-20T13:28:05;16.00;99.90
5059;DHT22;2548;52.050;11.036;2022-09-20T13:30:33;15.70;99.90
5059;DHT22;2548;52.050;11.036;2022-09-20T13:33:21;15.60;99.90
5059;DHT22;2548;52.050;11.036;2022-09-20T13:35:51;15.40;99.90
5059;DHT22;2548;52.050;11.036;2022-09-20T13:38:19;15.50;99.90
5059;DHT22;2548;52.050;11.036;2022-09-20T13:40:51;15.50;99.90
5059;DHT22;2548;52.050;11.036;2022-09-20T13:43:25;15.50;99.90
5059;DHT22;2548;52.050;11.036;2022-09-20T13:45:55;15.60;99.90
5059;DHT22;2548;52.050;11.036;2022-09-20T13:48:25;15.90;99.90
5059;DHT22;2548;52.050;11.036;2022-09-20T13:50:53;16.00;99.90
5059;DHT22;2548;52.050;11.036;2022-09-20T13:53:23;15.90;99.90
5059;DHT22;2548;52.050;11.036;2022-09-20T13:55:51;15.70;99.90
5059;DHT22;2548;52.050;11.036;2022-09-20T13:58:21;15.80;99.90
5059;DHT22;2548;52.050;11.036;2022-09-20T14:00:52;15.70;99.90
5059;DHT22;2548;52.050;11.036;2022-09-20T14:03:21;15.70;99.90
5059;DHT22;2548;52.050;11.036;2022-09-20T14:05:52;15.60;99.90
5059;DHT22;2548;52.050;11.036;2022-09-20T14:08:23;15.70;99.90
5059;DHT22;2548;52.050;11.036;2022-09-20T14:11:03;15.80;99.90
5059;DHT22;2548;52.050;11.036;2022-09-20T14:13:35;15.70;99.90
5059;DHT22;2548;52.050;11.036;2022-09-20T14:16:04;15.60;99.90
5059;DHT22;2548;52.050;11.036;2022-09-20T14:18:32;15.50;99.90
5059;DHT22;2548;52.050;11.036;2022-09-20T14:21:02;15.50;99.90
5059;DHT22;2548;52.050;11.036;2022-09-20T14:23:29;15.80;99.90
5059;DHT22;2548;52.050;11.036;2022-09-20T14:26:16;16.00;99.90
5059;DHT22;2548;52.050;11.036;2022-09-20T14:28:47;16.20;99.90
5059;DHT22;2548;52.050;11.036;2022-09-20T14:31:16;16.40;99.90
5059;DHT22;2548;52.050;11.036;2022-09-20T14:33:48;16.60;99.90
5059;DHT22;2548;52.050;11.036;2022-09-20T14:36:20;16.70;99.90
5059;DHT22;2548;52.050;11.036;2022-09-20T14:38:49;16.70;99.90
5059;DHT22;2548;52.050;11.036;2022-09-20T14:41:24;16.80;99.90
5059;DHT22;2548;52.050;11.036;2022-09-20T14:43:55;16.90;99.90
5059;DHT22;2548;52.050;11.036;2022-09-20T14:46:28;17.00;99.90
5059;DHT22;2548;52.050;11.036;2022-09-20T14:55:23;17.00;99.90
5059;DHT22;2548;52.050;11.036;2022-09-20T14:57:59;17.00;99.90
5059;DHT22;2548;52.050;11.036;2022-09-20T15:00:27;16.90;99.90
5059;DHT22;2548;52.050;11.036;2022-09-20T15:03:02;16.90;99.90
5059;DHT22;2548;52.050;11.036;2022-09-20T15:05:30;17.00;99.90
5059;DHT22;2548;52.050;11.036;2022-09-20T15:07:58;16.80;99.90
5059;DHT22;2548;52.050;11.036;2022-09-20T15:10:27;16.60;99.90
5059;DHT22;2548;52.050;11.036;2022-09-20T15:12:55;16.40;99.90
5059;DHT22;2548;52.050;11.036;2022-09-20T15:15:23;16.30;99.90
5059;DHT22;2548;52.050;11.036;2022-09-20T15:17:50;16.20;99.90
5059;DHT22;2548;52.050;11.036;2022-09-20T15:20:19;16.20;99.90
5059;DHT22;2548;52.050;11.036;2022-09-20T15:22:48;16.10;99.90
5059;DHT22;2548;52.050;11.036;2022-09-20T15:25:17;16.00;99.90
5059;DHT22;2548;52.050;11.036;2022-09-20T15:27:47;15.90;99.90
5059;DHT22;2548;52.050;11.036;2022-09-20T15:30:17;15.90;99.90
5059;DHT22;2548;52.050;11.036;2022-09-20T15:32:46;16.00;99.90
5059;DHT22;2548;52.050;11.036;2022-09-20T15:35:13;16.00;99.90
5059;DHT22;2548;52.050;11.036;2022-09-20T15:37:41;16.00;99.90
5059;DHT22;2548;52.050;11.036;2022-09-20T15:40:10;15.90;99.90
5059;DHT22;2548;52.050;11.036;2022-09-20T15:42:37;15.80;99.90
5059;DHT22;2548;52.050;11.036;2022-09-20T15:45:09;15.50;99.90
5059;DHT22;2548;52.050;11.036;2022-09-20T15:47:38;15.20;99.90
5059;DHT22;2548;52.050;11.036;2022-09-20T15:50:07;15.10;99.90
5059;DHT22;2548;52.050;11.036;2022-09-20T15:52:36;15.10;99.90
5059;DHT22;2548;52.050;11.036;2022-09-20T15:55:06;15.00;99.90
5059;DHT22;2548;52.050;11.036;2022-09-20T15:57:34;14.90;99.90
5059;DHT22;2548;52.050;11.036;2022-09-20T16:00:02;14.80;99.90
5059;DHT22;2548;52.050;11.036;2022-09-20T16:02:35;14.60;99.90
5059;DHT22;2548;52.050;11.036;2022-09-20T16:05:03;14.50;99.90
5059;DHT22;2548;52.050;11.036;2022-09-20T16:07:31;14.40;99.90
5059;DHT22;2548;52.050;11.036;2022-09-20T16:09:58;14.40;99.90
5059;DHT22;2548;52.050;11.036;2022-09-20T16:12:26;14.50;99.90
5059;DHT22;2548;52.050;11.036;2022-09-20T16:14:53;14.50;99.90
5059;DHT22;2548;52.050;11.036;2022-09-20T16:17:20;14.50;99.90
5059;DHT22;2548;52.050;11.036;2022-09-20T16:20:10;14.50;99.90
5059;DHT22;2548;52.050;11.036;2022-09-20T16:22:36;14.50;99.90
5059;DHT22;2548;52.050;11.036;2022-09-20T16:25:04;14.50;99.90
5059;DHT22;2548;52.050;11.036;2022-09-20T16:27:33;14.50;99.90
5059;DHT22;2548;52.050;11.036;2022-09-20T16:30:01;14.40;99.90
5059;DHT22;2548;52.050;11.036;2022-09-20T16:32:29;14.40;99.90
5059;DHT22;2548;52.050;11.036;2022-09-20T16:34:56;14.30;99.90
5059;DHT22;2548;52.050;11.036;2022-09-20T16:37:27;14.20;99.90
5059;DHT22;2548;52.050;11.036;2022-09-20T16:39:58;14.20;99.90
5059;DHT22;2548;52.050;11.036;2022-09-20T16:42:27;14.20;99.90
5059;DHT22;2548;52.050;11.036;2022-09-20T16:44:55;14.10;99.90
5059;DHT22;2548;52.050;11.036;2022-09-20T16:47:24;14.10;99.90
5059;DHT22;2548;52.050;11.036;2022-09-20T16:49:52;14.00;99.90
5059;DHT22;2548;52.050;11.036;2022-09-20T16:52:22;13.90;99.90
5059;DHT22;2548;52.050;11.036;2022-09-20T16:54:53;13.80;99.90
5059;DHT22;2548;52.050;11.036;2022-09-20T16:57:21;13.70;99.90
5059;DHT22;2548;52.050;11.036;2022-09-20T16:59:50;13.60;99.90
5059;DHT22;2548;52.050;11.036;2022-09-20T17:02:21;13.50;99.90
5059;DHT22;2548;52.050;11.036;2022-09-20T17:04:49;13.50;99.90
5059;DHT22;2548;52.050;11.036;2022-09-20T17:07:17;13.40;99.90
5059;DHT22;2548;52.050;11.036;2022-09-20T17:09:50;13.30;99.90
5059;DHT22;2548;52.050;11.036;2022-09-20T17:12:27;13.20;99.90
5059;DHT22;2548;52.050;11.036;2022-09-20T17:15:00;13.10;99.90
5059;DHT22;2548;52.050;11.036;2022-09-20T17:17:28;13.00;99.90
5059;DHT22;2548;52.050;11.036;2022-09-20T17:19:57;12.90;99.90
5059;DHT22;2548;52.050;11.036;2022-09-20T17:22:26;12.80;99.90
5059;DHT22;2548;52.050;11.036;2022-09-20T17:24:55;12.70;99.90
5059;DHT22;2548;52.050;11.036;2022-09-20T17:27:24;12.70;99.90
5059;DHT22;2548;52.050;11.036;2022-09-20T17:29:54;12.70;99.90
5059;DHT22;2548;52.050;11.036;2022-09-20T17:32:22;12.60;99.90
5059;DHT22;2548;52.050;11.036;2022-09-20T17:34:51;12.60;99.90